Time;durP1;ratioP1;P1;durP2;ratioP2;P2;SDS_P1;SDS_P2;PMS_P1;PMS_P2;Temp;Humidity;BMP_temperature;BMP_pressure;BME280_temperature;BME280_humidity;BME280_pressure;Samples;Min_cycle;Max_cycle;Signal;HPM_P1;HPM_P2
2022/04/09 00:02:05;;;;;;;16.02;4.03;;;;;;;3.48;80.00;100264.47;5061844;28;20029;-74
2022/04/09 00:04:31;;;;;;;22.48;4.45;;;;;;;3.53;79.94;100268.66;5064773;28;20161;-74
2022/04/09 00:06:56;;;;;;;16.10;4.13;;;;;;;3.50;79.97;100275.88;5066498;28;20025;-74
2022/04/09 00:09:21;;;;;;;18.38;4.28;;;;;;;3.50;80.03;100278.53;5065171;28;20056;-74
2022/04/09 00:11:47;;;;;;;19.50;4.07;;;;;;;3.51;79.84;100279.38;5058551;28;20021;-74
2022/04/09 00:14:12;;;;;;;12.45;3.85;;;;;;;3.52;79.61;100285.56;5062719;28;20032;-74
2022/04/09 00:16:38;;;;;;;16.30;3.92;;;;;;;3.54;80.15;100294.31;5054528;28;20425;-74
2022/04/09 00:19:05;;;;;;;17.95;4.20;;;;;;;3.57;79.46;100294.13;5065266;28;20407;-74
2022/04/09 00:21:31;;;;;;;18.88;4.70;;;;;;;3.60;80.08;100299.28;5058131;28;20039;-74
2022/04/09 00:23:57;;;;;;;14.10;3.67;;;;;;;3.63;79.83;100309.75;5041489;28;20078;-74
2022/04/09 00:26:22;;;;;;;21.83;4.43;;;;;;;3.63;79.57;100315.06;5032922;28;20026;-74
2022/04/09 00:28:47;;;;;;;20.35;3.67;;;;;;;3.62;79.62;100308.91;5045227;28;20445;-74
2022/04/09 00:31:13;;;;;;;21.42;5.00;;;;;;;3.62;79.43;100314.22;5048826;28;20035;-74
2022/04/09 00:33:38;;;;;;;20.20;4.13;;;;;;;3.60;79.84;100313.44;5050614;28;20029;-74
2022/04/09 00:36:03;;;;;;;14.30;3.65;;;;;;;3.58;79.76;100317.97;5054003;28;20033;-74
2022/04/09 00:38:29;;;;;;;21.52;5.30;;;;;;;3.60;79.69;100332.06;5049159;28;20036;-74
2022/04/09 00:40:55;;;;;;;18.15;5.15;;;;;;;3.60;79.57;100323.19;5036001;28;20030;-74
2022/04/09 00:43:21;;;;;;;17.90;4.43;;;;;;;3.58;79.40;100327.75;5046350;28;20398;-74
2022/04/09 00:45:50;;;;;;;16.30;3.75;;;;;;;3.56;79.38;100337.59;5042593;28;20025;-74
2022/04/09 00:48:17;;;;;;;20.23;4.43;;;;;;;3.55;79.40;100344.69;5045985;28;20115;-74
2022/04/09 00:50:42;;;;;;;24.13;4.82;;;;;;;3.56;79.45;100340.25;5052486;28;20763;-74
2022/04/09 00:53:09;;;;;;;15.32;3.80;;;;;;;3.56;79.37;100345.56;5043883;28;20034;-74
2022/04/09 00:58:20;;;;;;;15.38;4.03;;;;;;;3.53;79.47;100362.53;5051388;28;20132;-74
2022/04/09 01:00:46;;;;;;;20.95;4.85;;;;;;;3.54;79.25;100368.69;5052909;28;20381;-74
2022/04/09 01:03:18;;;;;;;21.00;4.10;;;;;;;3.49;79.32;100367.13;5047864;28;20035;-74
2022/04/09 01:05:44;;;;;;;13.45;4.05;;;;;;;3.46;78.87;100369.09;5032166;28;20052;-74
2022/04/09 01:08:09;;;;;;;18.67;4.20;;;;;;;3.44;79.36;100373.63;5046125;28;20032;-74
2022/04/09 01:10:34;;;;;;;19.60;3.90;;;;;;;3.39;79.22;100380.97;5052318;28;20393;-74
2022/04/09 01:13:00;;;;;;;13.05;3.28;;;;;;;3.30;79.07;100382.31;5048824;28;20127;-74
2022/04/09 01:15:25;;;;;;;16.23;3.78;;;;;;;3.26;79.74;100394.84;5033253;28;20036;-74
2022/04/09 01:17:51;;;;;;;15.32;4.43;;;;;;;3.21;79.74;100390.75;5041806;28;20063;-74
2022/04/09 01:20:18;;;;;;;15.23;3.83;;;;;;;3.16;79.84;100401.56;5053378;28;20025;-74
2022/04/09 01:22:43;;;;;;;15.75;3.60;;;;;;;3.12;80.02;100406.19;5028679;28;20083;-74
2022/04/09 01:25:08;;;;;;;19.45;3.97;;;;;;;3.11;80.00;100412.41;5048553;28;20029;-74
2022/04/09 01:27:34;;;;;;;17.83;3.88;;;;;;;3.10;80.34;100418.66;5040831;28;20081;-74
2022/04/09 01:29:59;;;;;;;17.27;3.67;;;;;;;3.08;79.79;100428.50;5020615;28;20041;-74
2022/04/09 01:32:25;;;;;;;16.38;3.95;;;;;;;3.05;80.12;100426.00;5044148;28;20036;-74
2022/04/09 01:34:52;;;;;;;18.15;3.72;;;;;;;3.02;80.74;100423.50;5052185;28;20411;-74
2022/04/09 01:37:17;;;;;;;18.33;4.55;;;;;;;3.04;80.79;100426.09;5044074;28;20430;-74
2022/04/09 01:39:43;;;;;;;16.70;3.85;;;;;;;3.03;80.53;100433.19;5050949;28;20033;-74
2022/04/09 01:42:10;;;;;;;15.90;4.15;;;;;;;3.03;80.32;100440.28;5051980;28;20083;-74
2022/04/09 01:44:36;;;;;;;17.88;4.22;;;;;;;3.02;80.99;100441.25;5049547;28;20032;-74
2022/04/09 01:47:01;;;;;;;14.93;4.45;;;;;;;3.00;80.95;100449.25;5045504;28;20037;-74
2022/04/09 01:49:27;;;;;;;16.58;3.47;;;;;;;2.97;80.64;100449.41;5033054;28;20037;-74
2022/04/09 01:51:52;;;;;;;14.57;3.22;;;;;;;2.92;80.67;100454.94;5037845;28;20040;-74
2022/04/09 01:54:17;;;;;;;14.77;3.28;;;;;;;2.91;80.73;100457.66;5048669;28;20717;-74
2022/04/09 01:56:42;;;;;;;15.73;3.47;;;;;;;2.91;81.31;100469.13;5052420;28;20040;-74
2022/04/09 01:59:08;;;;;;;16.27;4.15;;;;;;;2.91;80.92;100473.59;5051709;28;20031;-74
2022/04/09 02:01:33;;;;;;;23.33;4.50;;;;;;;2.94;81.04;100468.13;5051306;28;20052;-74
2022/04/09 02:03:59;;;;;;;18.35;4.00;;;;;;;3.00;80.95;100465.19;5049318;28;20040;-74
2022/04/09 02:06:25;;;;;;;15.40;2.90;;;;;;;3.04;81.28;100472.06;5052197;28;20036;-74
2022/04/09 02:08:50;;;;;;;20.98;4.53;;;;;;;3.09;81.11;100480.69;5036770;28;20029;-74
2022/04/09 02:11:16;;;;;;;17.63;3.25;;;;;;;3.11;80.87;100481.47;5032217;28;20072;-74
2022/04/09 02:13:41;;;;;;;21.23;4.20;;;;;;;3.15;80.98;100496.31;5048997;28;20068;-74
2022/04/09 02:16:06;;;;;;;14.60;3.35;;;;;;;3.17;80.61;100490.94;5032137;28;20036;-74
2022/04/09 02:18:32;;;;;;;13.00;3.60;;;;;;;3.21;81.09;100495.16;5032641;28;20029;-74
2022/04/09 02:20:57;;;;;;;15.30;3.47;;;;;;;3.25;80.45;100498.50;5031935;28;20068;-74
2022/04/09 02:23:22;;;;;;;12.25;3.28;;;;;;;3.28;80.63;100501.91;5044339;28;20068;-74
2022/04/09 02:25:48;;;;;;;20.63;4.05;;;;;;;3.29;80.16;100506.28;5051971;28;20439;-74
2022/04/09 02:28:13;;;;;;;14.35;3.17;;;;;;;3.31;80.29;100515.03;5038434;28;20473;-74
2022/04/09 02:30:38;;;;;;;14.82;4.00;;;;;;;3.29;79.93;100508.06;5043710;28;20251;-74
2022/04/09 02:33:04;;;;;;;12.20;3.30;;;;;;;3.27;80.11;100516.09;5041286;28;20037;-74
2022/04/09 02:35:29;;;;;;;14.52;3.45;;;;;;;3.27;79.73;100515.25;5050391;28;20024;-74
2022/04/09 02:37:55;;;;;;;11.25;3.10;;;;;;;3.30;79.61;100520.41;5050857;28;20021;-74
2022/04/09 02:40:20;;;;;;;16.00;3.65;;;;;;;3.28;79.55;100522.28;5049893;28;20029;-74
2022/04/09 02:42:46;;;;;;;15.20;3.40;;;;;;;3.29;79.42;100524.00;5043788;28;20472;-74
2022/04/09 02:45:12;;;;;;;15.50;2.97;;;;;;;3.30;79.32;100534.53;5042785;28;20469;-74
2022/04/09 02:47:38;;;;;;;15.07;3.90;;;;;;;3.35;79.45;100533.47;5058349;28;20060;-74
2022/04/09 02:50:05;;;;;;;18.17;3.85;;;;;;;3.38;78.88;100546.59;5051483;28;20040;-74
2022/04/09 02:52:38;;;;;;;13.45;3.53;;;;;;;3.42;78.70;100545.53;5046906;28;20040;-74
2022/04/09 02:55:05;;;;;;;11.82;2.88;;;;;;;3.45;77.64;100550.69;5051465;28;20123;-74
2022/04/09 02:57:30;;;;;;;14.43;3.00;;;;;;;3.47;77.81;100555.00;5036175;28;20033;-74
2022/04/09 02:59:56;;;;;;;17.40;3.58;;;;;;;3.48;77.86;100556.72;5030248;28;20029;-74
2022/04/09 03:02:21;;;;;;;12.50;3.33;;;;;;;3.50;77.71;100562.81;5040506;28;20476;-74
2022/04/09 03:04:51;;;;;;;16.13;4.28;;;;;;;3.51;77.60;100566.31;5050377;28;20086;-74
2022/04/09 03:07:17;;;;;;;15.02;3.05;;;;;;;3.49;77.87;100563.75;5050455;28;20515;-74
2022/04/09 03:09:42;;;;;;;11.75;3.10;;;;;;;3.44;77.48;100567.56;5050980;28;20131;-74
2022/04/09 03:12:07;;;;;;;16.58;2.85;;;;;;;3.38;78.12;100576.66;5041316;28;20033;-74
2022/04/09 03:14:32;;;;;;;14.25;2.90;;;;;;;3.32;77.96;100582.28;5049822;28;20025;-74
2022/04/09 03:16:58;;;;;;;22.00;4.65;;;;;;;3.26;78.25;100571.97;5041799;28;20388;-74
2022/04/09 03:19:23;;;;;;;17.15;3.80;;;;;;;3.24;78.12;100572.03;5043575;28;20028;-74
2022/04/09 03:21:48;;;;;;;18.55;3.22;;;;;;;3.26;77.98;100582.59;5050439;28;20056;-74
2022/04/09 03:24:14;;;;;;;16.02;3.25;;;;;;;3.25;77.95;100587.03;5032196;28;20496;-74
2022/04/09 03:26:39;;;;;;;17.23;3.65;;;;;;;3.18;78.23;100582.94;5032338;28;20377;-74
2022/04/09 03:29:04;;;;;;;18.83;3.80;;;;;;;3.12;78.01;100586.75;5040420;28;20476;-74
2022/04/09 03:31:30;;;;;;;17.52;3.58;;;;;;;3.09;78.52;100594.88;5043172;28;20044;-74
2022/04/09 03:33:56;;;;;;;14.18;2.95;;;;;;;3.06;78.70;100602.97;5050113;28;20451;-74
2022/04/09 03:36:21;;;;;;;14.82;3.67;;;;;;;3.01;78.66;100604.09;5045823;28;20465;-74
2022/04/09 03:38:46;;;;;;;14.88;3.33;;;;;;;2.99;78.62;100604.19;5031118;28;20373;-74
2022/04/09 03:41:11;;;;;;;16.73;3.75;;;;;;;2.97;78.84;100606.91;5038686;28;20036;-74
2022/04/09 03:43:37;;;;;;;15.82;3.33;;;;;;;2.99;79.16;100606.84;5031195;28;20036;-74
2022/04/09 03:46:03;;;;;;;15.65;3.25;;;;;;;2.99;78.77;100612.16;5030539;28;20041;-74
2022/04/09 03:48:28;;;;;;;18.83;3.75;;;;;;;2.99;78.84;100620.09;5049987;28;20099;-74
2022/04/09 03:50:54;;;;;;;19.00;3.83;;;;;;;3.00;79.00;100616.50;5049324;28;20175;-74
2022/04/09 03:53:22;;;;;;;12.52;2.88;;;;;;;2.99;78.85;100617.44;5048309;28;20039;-74
2022/04/09 03:55:48;;;;;;;8.98;2.40;;;;;;;2.97;78.98;100620.19;5049768;28;20044;-74
2022/04/09 03:58:15;;;;;;;9.88;2.90;;;;;;;2.98;78.90;100629.00;5053227;28;20032;-74
2022/04/09 04:00:41;;;;;;;15.57;3.33;;;;;;;2.96;78.66;100629.06;5053813;28;20075;-74
2022/04/09 04:03:07;;;;;;;15.80;3.22;;;;;;;2.96;78.88;100629.06;5046180;28;20079;-74
2022/04/09 04:05:33;;;;;;;16.63;3.65;;;;;;;2.92;79.22;100637.25;5052038;28;20041;-74
2022/04/09 04:07:58;;;;;;;15.77;3.92;;;;;;;2.91;79.07;100638.16;5054685;28;20035;-74
2022/04/09 04:10:23;;;;;;;13.65;3.58;;;;;;;2.91;79.21;100641.66;5051491;28;20041;-74
2022/04/09 04:12:49;;;;;;;12.00;2.83;;;;;;;2.90;79.06;100647.06;5053450;28;20052;-74
2022/04/09 04:15:15;;;;;;;14.80;2.95;;;;;;;2.88;79.41;100649.78;5053892;28;20035;-74
2022/04/09 04:17:42;;;;;;;15.48;3.70;;;;;;;2.85;79.61;100655.22;5038745;28;20029;-74
2022/04/09 04:20:08;;;;;;;13.48;3.53;;;;;;;2.80;79.25;100663.41;5052809;28;20035;-74
2022/04/09 04:22:33;;;;;;;18.05;3.88;;;;;;;2.78;79.62;100672.34;5039418;28;20040;-74
2022/04/09 04:24:58;;;;;;;12.98;3.28;;;;;;;2.77;79.23;100673.28;5035525;28;20501;-74
2022/04/09 04:27:24;;;;;;;16.20;3.75;;;;;;;2.73;79.52;100680.50;5051773;28;20036;-74
2022/04/09 04:29:49;;;;;;;8.52;2.55;;;;;;;2.71;79.68;100677.06;5052454;28;20025;-74
2022/04/09 04:32:14;;;;;;;12.88;2.90;;;;;;;2.67;79.66;100680.78;5043693;28;20485;-75
2022/04/09 04:34:39;;;;;;;10.75;2.95;;;;;;;2.60;79.28;100679.31;5032327;28;20043;-75
2022/04/09 04:37:05;;;;;;;11.35;3.00;;;;;;;2.61;80.03;100683.72;5033818;28;20083;-74
2022/04/09 04:39:30;;;;;;;16.17;3.35;;;;;;;2.60;80.17;100679.31;5034878;28;20039;-74
2022/04/09 04:41:55;;;;;;;14.68;3.92;;;;;;;2.62;80.35;100688.94;5048219;28;20095;-74
2022/04/09 04:44:20;;;;;;;12.63;2.83;;;;;;;2.64;80.59;100680.91;5032275;28;20041;-74
2022/04/09 04:46:46;;;;;;;14.80;3.03;;;;;;;2.66;80.07;100691.47;5050515;28;20039;-74
2022/04/09 04:49:12;;;;;;;18.38;3.47;;;;;;;2.67;80.45;100699.34;5047408;28;20052;-74
2022/04/09 04:51:37;;;;;;;16.77;3.38;;;;;;;2.67;80.25;100702.00;5033004;28;20033;-74
2022/04/09 04:54:03;;;;;;;21.50;3.58;;;;;;;2.69;80.32;100705.44;5040740;28;20120;-74
2022/04/09 04:56:28;;;;;;;12.65;3.53;;;;;;;2.68;80.42;100713.47;5039976;28;20032;-74
2022/04/09 04:58:54;;;;;;;20.63;3.53;;;;;;;2.71;80.83;100714.22;5042497;28;20021;-74
2022/04/09 05:01:20;;;;;;;16.52;3.47;;;;;;;2.72;80.37;100718.59;5044528;28;20428;-74
2022/04/09 05:03:45;;;;;;;14.60;3.55;;;;;;;2.72;80.45;100721.22;5039454;28;20519;-74
2022/04/09 05:06:11;;;;;;;16.73;3.97;;;;;;;2.76;80.63;100725.50;5032998;28;20088;-73
2022/04/09 05:08:38;;;;;;;12.88;3.45;;;;;;;2.77;80.46;100727.22;5031632;28;20036;-74
2022/04/09 05:11:04;;;;;;;12.45;3.08;;;;;;;2.80;80.23;100726.25;5045109;28;20056;-74
2022/04/09 05:13:29;;;;;;;13.57;3.88;;;;;;;2.84;80.06;100732.25;5050032;28;20517;-74
2022/04/09 05:15:54;;;;;;;12.48;2.70;;;;;;;2.84;79.98;100746.41;5034582;28;20033;-74
2022/04/09 05:18:19;;;;;;;16.38;3.25;;;;;;;2.87;80.24;100734.78;5067087;28;20108;-74
2022/04/09 05:20:45;;;;;;;18.40;3.20;;;;;;;2.87;79.64;100750.72;5047774;28;20036;-74
2022/04/09 05:23:10;;;;;;;20.15;3.42;;;;;;;2.88;79.83;100755.09;5052331;28;20132;-74
2022/04/09 05:25:36;;;;;;;14.52;3.13;;;;;;;2.88;79.98;100753.28;5033253;28;20030;-74
2022/04/09 05:28:04;;;;;;;12.57;2.80;;;;;;;2.91;80.22;100760.28;5031801;28;20116;-74
2022/04/09 05:30:29;;;;;;;20.25;4.00;;;;;;;2.94;80.38;100768.97;5032427;28;20037;-74
2022/04/09 05:32:55;;;;;;;12.77;3.08;;;;;;;2.99;79.92;100768.78;5033051;28;20504;-75
2022/04/09 05:35:20;;;;;;;27.20;4.45;;;;;;;3.03;80.23;100773.03;5032826;28;20037;-74
2022/04/09 05:37:46;;;;;;;17.55;4.07;;;;;;;3.05;80.16;100786.25;5032710;28;20033;-74
2022/04/09 05:40:12;;;;;;;12.98;3.25;;;;;;;3.08;80.32;100781.66;5043977;28;20033;-77
2022/04/09 05:42:38;;;;;;;12.80;2.88;;;;;;;3.11;80.16;100786.81;5040563;28;20462;-74
2022/04/09 05:45:03;;;;;;;12.70;2.63;;;;;;;3.14;80.07;100792.00;5044568;28;20030;-75
2022/04/09 05:47:29;;;;;;;19.27;4.32;;;;;;;3.19;80.29;100794.44;5055804;28;20119;-74
2022/04/09 05:49:57;;;;;;;16.75;4.32;;;;;;;3.23;80.20;100800.50;5045505;28;20106;-74
2022/04/09 05:52:22;;;;;;;17.67;4.00;;;;;;;3.28;80.02;100804.69;5052147;28;20025;-74
2022/04/09 05:54:48;;;;;;;14.32;3.17;;;;;;;3.36;80.19;100809.66;5041026;28;20098;-74
2022/04/09 05:57:14;;;;;;;15.43;3.53;;;;;;;3.42;80.43;100814.69;5047105;28;20052;-74
2022/04/09 05:59:39;;;;;;;13.60;4.07;;;;;;;3.49;79.66;100817.97;5051838;28;20377;-74
2022/04/09 06:02:05;;;;;;;12.77;3.63;;;;;;;3.55;79.52;100822.16;5048837;28;20025;-74
2022/04/09 06:04:31;;;;;;;17.77;3.80;;;;;;;3.60;79.62;100817.47;5049076;28;20052;-74
2022/04/09 06:06:56;;;;;;;19.33;4.00;;;;;;;3.65;79.83;100823.47;5048566;28;20082;-73
2022/04/09 06:09:21;;;;;;;18.05;4.15;;;;;;;3.72;79.34;100827.56;5054301;28;20056;-73
2022/04/09 06:11:47;;;;;;;18.60;4.60;;;;;;;3.76;79.45;100842.41;5054272;28;20025;-73
2022/04/09 06:14:13;;;;;;;15.30;3.90;;;;;;;3.81;79.61;100845.75;5058376;28;20587;-73
2022/04/09 06:16:40;;;;;;;20.13;5.55;;;;;;;3.87;79.65;100839.31;5055444;28;20023;-73
2022/04/09 06:19:06;;;;;;;24.38;4.13;;;;;;;3.94;79.92;100839.88;5059036;28;20408;-73
2022/04/09 06:21:33;;;;;;;24.55;4.07;;;;;;;3.97;79.48;100850.38;5044650;28;20021;-77
2022/04/09 06:23:58;;;;;;;14.20;3.65;;;;;;;4.03;79.16;100852.75;5043476;28;20404;-76
2022/04/09 06:26:24;;;;;;;17.02;3.88;;;;;;;4.08;79.42;100855.19;5047314;28;20153;-75
2022/04/09 06:28:49;;;;;;;17.85;4.57;;;;;;;4.12;79.07;100854.97;5056107;28;20029;-74
2022/04/09 06:31:14;;;;;;;13.68;3.40;;;;;;;4.19;78.56;100859.09;5046637;28;20074;-74
2022/04/09 06:33:39;;;;;;;17.65;4.22;;;;;;;4.29;78.67;100859.53;5049659;28;20393;-74
2022/04/09 06:36:05;;;;;;;15.70;4.32;;;;;;;4.41;78.96;100868.72;5044753;28;20032;-74
2022/04/09 06:38:33;;;;;;;15.68;3.92;;;;;;;4.51;77.48;100875.34;5048900;28;20087;-75
2022/04/09 06:40:58;;;;;;;14.55;3.97;;;;;;;4.59;78.21;100874.97;5045152;28;20036;-72
2022/04/09 06:43:24;;;;;;;22.33;4.18;;;;;;;4.68;77.39;100885.16;5066240;28;20032;-72
2022/04/09 06:45:49;;;;;;;15.13;3.10;;;;;;;4.78;78.02;100879.41;5063569;28;20028;-73
2022/04/09 06:48:14;;;;;;;16.10;3.38;;;;;;;4.87;77.83;100879.81;5067752;28;20056;-75
2022/04/09 06:50:39;;;;;;;15.88;3.83;;;;;;;4.97;77.96;100884.69;5031152;28;20051;-73
2022/04/09 06:53:05;;;;;;;16.17;3.47;;;;;;;5.09;78.33;100884.06;5052382;28;20028;-73
2022/04/09 06:55:30;;;;;;;16.23;3.80;;;;;;;5.19;77.78;100893.34;5056870;28;20029;-74
2022/04/09 06:58:01;;;;;;;20.48;4.10;;;;;;;5.24;76.90;100893.97;5046264;28;20043;-74
2022/04/09 07:00:27;;;;;;;17.35;3.85;;;;;;;5.28;76.92;100894.69;5047610;28;20029;-74
2022/04/09 07:02:52;;;;;;;20.52;4.55;;;;;;;5.30;76.72;100894.59;5034352;28;20493;-74
2022/04/09 07:05:17;;;;;;;15.32;3.72;;;;;;;5.30;75.52;100902.59;5028825;28;20108;-73
2022/04/09 07:07:48;;;;;;;19.45;3.70;;;;;;;5.29;76.42;100906.22;5031801;28;20772;-73
2022/04/09 07:10:13;;;;;;;16.50;3.72;;;;;;;5.28;76.00;100910.66;5032545;28;20061;-73
2022/04/09 07:12:39;;;;;;;19.48;4.32;;;;;;;5.24;76.05;100917.97;5030435;28;20029;-73
2022/04/09 07:15:05;;;;;;;27.23;3.95;;;;;;;5.25;75.58;100909.00;5032650;28;20385;-73
2022/04/09 07:17:31;;;;;;;13.27;3.92;;;;;;;5.24;76.07;100911.75;5065120;28;20036;-73
2022/04/09 07:20:00;;;;;;;15.43;3.25;;;;;;;5.21;75.77;100920.78;5035690;28;20088;-73
2022/04/09 07:22:26;;;;;;;21.13;3.90;;;;;;;5.22;75.33;100924.28;5030994;28;20037;-73
2022/04/09 07:24:52;;;;;;;22.23;4.57;;;;;;;5.21;75.10;100926.13;5046868;28;20033;-73
2022/04/09 07:27:17;;;;;;;19.42;3.75;;;;;;;5.25;75.74;100926.81;5042838;28;20025;-74
2022/04/09 07:29:42;;;;;;;21.13;3.55;;;;;;;5.29;75.71;100936.38;5040892;28;20037;-72
2022/04/09 07:32:09;;;;;;;15.55;3.90;;;;;;;5.32;74.97;100930.91;5034436;28;20511;-71
2022/04/09 07:34:34;;;;;;;17.23;3.88;;;;;;;5.37;75.77;100939.53;5042841;28;20404;-72
2022/04/09 07:36:59;;;;;;;14.55;3.88;;;;;;;5.41;74.89;100942.91;5037782;28;20052;-73
2022/04/09 07:39:24;;;;;;;15.52;3.55;;;;;;;5.44;75.04;100937.41;5038263;28;20017;-74
2022/04/09 07:41:50;;;;;;;16.40;3.78;;;;;;;5.52;75.82;100945.88;5054122;28;20056;-74
2022/04/09 07:44:15;;;;;;;16.80;3.70;;;;;;;5.55;74.96;100945.72;5053634;28;20074;-74
2022/04/09 07:46:41;;;;;;;15.48;3.42;;;;;;;5.62;75.38;100954.25;5062390;28;20081;-74
2022/04/09 07:49:06;;;;;;;22.55;4.65;;;;;;;5.67;74.79;100948.72;5073167;28;20016;-73
2022/04/09 07:51:31;;;;;;;17.17;4.40;;;;;;;5.75;75.53;100951.84;5070020;28;20131;-74
2022/04/09 07:53:56;;;;;;;15.00;4.03;;;;;;;5.84;75.52;100954.06;5054523;28;20103;-74
2022/04/09 07:56:22;;;;;;;23.40;4.82;;;;;;;5.91;75.22;100949.25;5045747;28;20033;-74
2022/04/09 07:58:47;;;;;;;19.20;4.50;;;;;;;6.00;74.64;100963.94;5033256;28;20022;-75
2022/04/09 08:01:12;;;;;;;10.57;3.33;;;;;;;6.07;72.56;100962.69;5033188;28;20017;-75
2022/04/09 08:03:37;;;;;;;15.15;3.90;;;;;;;6.14;73.08;100955.22;5040267;28;20044;-75
2022/04/09 08:06:05;;;;;;;14.63;2.95;;;;;;;6.21;73.34;100968.16;5041314;28;20037;-74
2022/04/09 08:08:31;;;;;;;16.08;3.72;;;;;;;6.29;72.56;100968.59;5054173;28;20029;-74
2022/04/09 08:10:56;;;;;;;17.95;4.38;;;;;;;6.34;70.57;100959.47;5046152;28;20053;-74
2022/04/09 08:13:21;;;;;;;17.85;3.97;;;;;;;6.41;70.38;100966.22;5036809;28;20028;-74
2022/04/09 08:15:47;;;;;;;13.48;3.20;;;;;;;6.49;71.30;100964.00;5034499;28;20040;-74
2022/04/09 08:18:12;;;;;;;15.38;3.15;;;;;;;6.61;71.18;100965.13;5049244;28;20032;-74
2022/04/09 08:20:37;;;;;;;15.20;3.58;;;;;;;6.70;69.59;100967.28;5035550;28;20477;-74
2022/04/09 08:23:03;;;;;;;15.70;3.90;;;;;;;6.79;68.00;100969.47;5042912;28;20037;-74
2022/04/09 08:25:29;;;;;;;15.43;3.60;;;;;;;6.87;66.68;100971.69;5045763;28;20060;-74
2022/04/09 08:27:54;;;;;;;19.58;3.85;;;;;;;6.93;65.77;100971.34;5039139;28;20119;-74
2022/04/09 08:30:22;;;;;;;14.07;3.35;;;;;;;6.98;65.23;100971.97;5045200;28;20035;-74
2022/04/09 08:32:49;;;;;;;13.10;3.03;;;;;;;7.02;62.88;100975.31;5044598;28;20025;-74
2022/04/09 08:35:15;;;;;;;11.80;2.90;;;;;;;7.03;64.41;100979.72;5036277;28;20029;-74
2022/04/09 08:37:41;;;;;;;17.33;3.38;;;;;;;7.06;59.37;100967.97;5033746;28;20039;-74
2022/04/09 08:40:09;;;;;;;14.27;2.42;;;;;;;7.17;62.42;100984.28;5035036;28;20017;-74
2022/04/09 08:42:34;;;;;;;18.33;3.78;;;;;;;7.28;64.37;100994.38;5032869;28;20029;-74
2022/04/09 08:45:01;;;;;;;13.73;3.22;;;;;;;7.33;61.04;100985.09;5035069;28;20029;-74
2022/04/09 08:47:28;;;;;;;16.15;3.55;;;;;;;7.42;63.97;101001.59;5061445;28;20165;-74
2022/04/09 08:49:54;;;;;;;10.43;3.05;;;;;;;7.44;62.64;100995.22;5051508;28;20025;-74
2022/04/09 08:52:20;;;;;;;11.10;2.78;;;;;;;7.44;60.32;101005.91;5046232;28;20430;-74
2022/04/09 08:54:45;;;;;;;9.52;2.47;;;;;;;7.49;59.84;101005.63;5034441;28;20074;-74
2022/04/09 08:57:13;;;;;;;16.00;2.92;;;;;;;7.57;59.09;101006.06;5050109;28;20021;-74
2022/04/09 08:59:38;;;;;;;13.43;3.33;;;;;;;7.59;59.38;101009.50;5046706;28;20060;-74
2022/04/09 09:02:04;;;;;;;17.25;3.08;;;;;;;7.60;59.48;101023.72;5036792;28;20025;-74
2022/04/09 09:04:30;;;;;;;13.85;3.10;;;;;;;7.61;59.56;101012.94;5044650;28;20365;-74
2022/04/09 09:06:55;;;;;;;11.80;2.53;;;;;;;7.63;58.34;101010.19;5045727;28;20036;-73
2022/04/09 09:09:29;;;;;;;12.60;2.97;;;;;;;7.68;57.74;101029.50;5045292;28;20528;-73
2022/04/09 09:11:55;;;;;;;9.43;2.58;;;;;;;7.71;56.36;101034.66;5033365;28;20045;-73
2022/04/09 09:14:27;;;;;;;9.38;2.22;;;;;;;7.77;56.10;101030.78;5045407;28;20113;-73
2022/04/09 09:16:54;;;;;;;6.40;2.38;;;;;;;7.83;56.15;101019.69;5062276;28;20024;-73
2022/04/09 09:19:20;;;;;;;10.68;2.47;;;;;;;7.90;55.94;101033.59;5071626;28;20020;-73
2022/04/09 09:21:53;;;;;;;13.60;3.05;;;;;;;7.98;54.66;101031.31;5073446;28;20062;-73
2022/04/09 09:24:18;;;;;;;10.52;2.42;;;;;;;8.03;54.48;101035.44;5072797;28;20016;-73
2022/04/09 09:26:44;;;;;;;14.05;3.13;;;;;;;8.12;56.89;101028.66;5056258;28;20025;-73
2022/04/09 09:29:12;;;;;;;10.90;2.83;;;;;;;8.17;54.33;101039.09;5052808;28;20052;-73
2022/04/09 09:31:45;;;;;;;7.97;2.00;;;;;;;8.17;55.20;101033.75;5052977;28;20104;-73
2022/04/09 09:34:12;;;;;;;5.78;1.95;;;;;;;8.12;53.53;101042.06;5052705;28;20053;-75
2022/04/09 09:36:40;;;;;;;10.88;2.22;;;;;;;8.09;53.27;101044.06;5047260;28;20040;-76
2022/04/09 09:39:06;;;;;;;17.75;2.58;;;;;;;8.01;54.61;101048.06;5051258;28;20076;-73
2022/04/09 09:41:32;;;;;;;20.52;2.38;;;;;;;7.96;55.52;101050.13;5038937;28;20029;-71
2022/04/09 09:44:02;;;;;;;8.73;2.15;;;;;;;7.89;54.85;101046.09;5032669;28;20481;-73
2022/04/09 09:46:28;;;;;;;9.10;2.30;;;;;;;7.85;51.91;101053.44;5037756;28;20045;-75
2022/04/09 09:48:53;;;;;;;10.43;2.05;;;;;;;7.84;53.27;101045.53;5032636;28;20026;-74
2022/04/09 09:51:23;;;;;;;9.40;2.25;;;;;;;7.86;53.85;101048.94;5033221;28;20113;-75
2022/04/09 09:53:48;;;;;;;13.48;2.63;;;;;;;7.85;54.36;101052.59;5051190;28;20029;-74
2022/04/09 09:56:33;;;;;;;9.13;2.28;;;;;;;7.84;54.12;101041.00;5050757;28;20503;-73
2022/04/09 09:59:00;;;;;;;7.82;2.08;;;;;;;7.87;53.12;101046.19;5052352;28;20108;-73
2022/04/09 10:01:26;;;;;;;6.00;2.20;;;;;;;7.93;54.76;101058.34;5035458;28;20029;-72
2022/04/09 10:03:53;;;;;;;9.13;2.45;;;;;;;8.02;56.54;101057.81;5039207;28;20066;-73
2022/04/09 10:06:20;;;;;;;5.45;2.10;;;;;;;8.10;52.20;101067.22;5042103;28;20414;-73
2022/04/09 10:08:47;;;;;;;10.43;1.90;;;;;;;8.10;51.29;101061.88;5036790;28;20100;-75
2022/04/09 10:11:12;;;;;;;5.75;1.60;;;;;;;8.04;49.36;101061.25;5051768;28;20052;-73
2022/04/09 10:13:43;;;;;;;11.43;2.35;;;;;;;8.00;49.14;101057.03;5048606;28;20025;-73
2022/04/09 10:16:10;;;;;;;3.90;1.40;;;;;;;7.98;49.50;101068.78;5046141;28;20028;-73
2022/04/09 10:18:36;;;;;;;7.07;1.58;;;;;;;8.02;50.85;101055.16;5052374;28;20111;-73
2022/04/09 10:21:02;;;;;;;7.60;2.22;;;;;;;8.09;49.49;101062.81;5045885;28;20093;-73
2022/04/09 10:23:32;;;;;;;9.60;2.17;;;;;;;8.14;52.54;101066.94;5031910;28;20025;-73
2022/04/09 10:25:59;;;;;;;10.07;2.08;;;;;;;8.12;49.21;101065.28;5031932;28;20022;-73
2022/04/09 10:28:35;;;;;;;8.18;2.05;;;;;;;8.09;49.21;101069.00;5032246;28;20060;-73
2022/04/09 10:31:00;;;;;;;7.43;2.30;;;;;;;8.06;50.28;101079.91;5042762;28;20081;-74
2022/04/09 10:33:28;;;;;;;6.13;1.85;;;;;;;8.03;47.60;101072.06;5042403;28;20452;-74
2022/04/09 10:35:55;;;;;;;5.40;1.77;;;;;;;8.01;47.39;101074.81;5014103;28;20444;-74
2022/04/09 10:38:22;;;;;;;3.85;1.75;;;;;;;8.02;48.52;101067.66;5031652;28;20056;-74
2022/04/09 10:40:52;;;;;;;8.98;1.95;;;;;;;7.97;47.02;101078.63;5031619;28;20362;-74
2022/04/09 10:43:20;;;;;;;6.40;1.73;;;;;;;7.89;47.55;101070.19;5031620;28;20021;-74
2022/04/09 10:46:09;;;;;;;9.15;2.33;;;;;;;7.87;49.86;101077.44;5030401;28;20036;-74
2022/04/09 10:48:36;;;;;;;13.02;2.17;;;;;;;7.86;49.72;101073.91;5034857;28;20083;-73
2022/04/09 10:51:04;;;;;;;3.95;1.48;;;;;;;7.88;48.41;101071.16;5030082;28;20506;-72
2022/04/09 10:53:38;;;;;;;6.78;1.35;;;;;;;7.97;46.04;101083.97;5042904;28;20055;-72
2022/04/09 10:56:09;;;;;;;10.38;1.73;;;;;;;8.03;46.63;101083.63;5032472;28;20033;-73
2022/04/09 10:59:03;;;;;;;8.68;2.10;;;;;;;8.16;49.19;101089.13;5032250;28;20099;-73
2022/04/09 11:01:50;;;;;;;8.82;2.38;;;;;;;8.32;49.64;101094.41;5029587;28;20397;-72
2022/04/09 11:04:37;;;;;;;5.72;1.50;;;;;;;8.47;48.99;101068.56;5049721;28;20404;-72
2022/04/09 11:07:10;;;;;;;4.38;1.10;;;;;;;8.56;46.06;101075.16;5043299;28;20044;-73
2022/04/09 11:09:54;;;;;;;7.40;1.70;;;;;;;8.64;46.58;101070.22;5042741;28;20132;-72
2022/04/09 11:12:25;;;;;;;4.72;1.25;;;;;;;8.66;43.40;101080.81;5043892;28;20518;-72
2022/04/09 11:14:52;;;;;;;5.05;1.70;;;;;;;8.71;42.50;101082.28;5041213;28;20512;-72
2022/04/09 11:17:29;;;;;;;3.45;1.02;;;;;;;8.67;42.39;101088.78;5056298;28;20024;-72
2022/04/09 11:20:15;;;;;;;3.60;1.20;;;;;;;8.60;43.88;101087.41;5046470;28;20026;-72
2022/04/09 11:22:45;;;;;;;4.72;1.25;;;;;;;8.60;45.52;101094.59;5047355;28;20045;-72
2022/04/09 11:25:16;;;;;;;7.38;1.42;;;;;;;8.51;43.16;101090.69;5042639;28;20060;-72
2022/04/09 11:27:41;;;;;;;3.58;1.27;;;;;;;8.46;42.95;101087.41;5050014;28;20040;-72